createdAt,value
2023-02-06T00:01:42.234Z,59.36
2023-02-06T00:04:10.497Z,59.82
2023-02-06T00:06:38.810Z,60.43
2023-02-06T00:09:07.712Z,60.65
2023-02-06T00:11:35.726Z,60.94
2023-02-06T00:14:04.450Z,61.35
2023-02-06T00:16:34.660Z,61.86
2023-02-06T00:19:03.350Z,64.88
2023-02-06T00:21:31.733Z,68.58
2023-02-06T00:24:02.123Z,67.48
2023-02-06T00:26:31.732Z,65.35
2023-02-06T00:28:59.914Z,63.55
2023-02-06T00:31:28.108Z,62.70
2023-02-06T00:33:56.261Z,61.38
2023-02-06T00:36:24.424Z,60.50
2023-02-06T00:38:53.221Z,58.22
2023-02-06T00:41:21.942Z,55.81
2023-02-06T00:43:52.544Z,55.30
2023-02-06T00:46:21.355Z,55.63
2023-02-06T00:48:49.327Z,56.13
2023-02-06T00:51:17.644Z,56.67
2023-02-06T00:53:45.736Z,57.47
2023-02-06T00:56:14.765Z,58.47
2023-02-06T00:58:42.801Z,58.88
2023-02-06T01:01:12.613Z,59.40
2023-02-06T01:03:40.596Z,59.83
2023-02-06T01:06:10.699Z,60.13
2023-02-06T01:08:38.821Z,60.94
2023-02-06T01:11:21.481Z,62.05
2023-02-06T01:13:50.180Z,65.89
2023-02-06T01:16:22.103Z,67.69
2023-02-06T01:18:51.017Z,66.21
2023-02-06T01:21:22.805Z,65.18
2023-02-06T01:23:53.624Z,63.67
2023-02-06T01:26:24.644Z,62.53
2023-02-06T01:28:53.793Z,61.82
2023-02-06T01:31:25.768Z,61.69
2023-02-06T01:33:55.928Z,60.99
2023-02-06T01:36:24.431Z,60.43
2023-02-06T01:38:52.905Z,58.68
2023-02-06T01:41:23.120Z,55.97
2023-02-06T01:44:31.628Z,55.47
2023-02-06T01:46:59.850Z,55.44
2023-02-06T01:49:35.704Z,56.19
2023-02-06T01:52:27.208Z,56.93
2023-02-06T01:55:01.145Z,57.45
2023-02-06T01:57:30.195Z,58.21
2023-02-06T02:00:03.246Z,58.82
2023-02-06T02:02:45.128Z,59.28
2023-02-06T02:05:13.556Z,59.90
2023-02-06T02:07:51.211Z,60.46
2023-02-06T02:10:19.420Z,61.03
2023-02-06T02:12:47.384Z,61.45
2023-02-06T02:15:15.452Z,61.88
2023-02-06T02:17:55.859Z,63.60
2023-02-06T02:20:39.707Z,67.53
2023-02-06T02:23:24.524Z,68.02
2023-02-06T02:26:05.187Z,66.29
2023-02-06T02:29:07.705Z,65.53
2023-02-06T02:31:43.125Z,64.03
2023-02-06T02:34:39.543Z,63.25
2023-02-06T02:37:36.905Z,62.72
2023-02-06T02:40:11.336Z,62.26
2023-02-06T02:42:58.784Z,60.57
2023-02-06T02:45:40.874Z,58.28
2023-02-06T02:48:14.478Z,56.22
2023-02-06T02:50:43.640Z,56.02
2023-02-06T02:53:13.658Z,56.44
2023-02-06T02:55:42.792Z,56.97
2023-02-06T02:58:15.234Z,57.84
2023-02-06T03:00:56.934Z,58.44
2023-02-06T03:03:29.081Z,58.99
2023-02-06T03:06:18.985Z,59.66
2023-02-06T03:09:23.081Z,60.44
2023-02-06T03:12:02.312Z,60.88
2023-02-06T03:14:40.016Z,61.77
2023-02-06T03:17:18.011Z,64.38
2023-02-06T03:19:51.865Z,67.87
2023-02-06T03:22:24.658Z,66.79
2023-02-06T03:24:54.692Z,66.22
2023-02-06T03:27:24.021Z,65.42
2023-02-06T03:29:55.032Z,64.48
2023-02-06T03:32:32.756Z,63.70
2023-02-06T03:35:07.328Z,62.76
2023-02-06T03:37:37.134Z,62.03
2023-02-06T03:40:07.767Z,61.37
2023-02-06T03:42:40.880Z,60.83
2023-02-06T03:45:29.159Z,60.37
2023-02-06T03:48:02.912Z,59.93
2023-02-06T03:50:33.135Z,58.26
2023-02-06T03:53:04.330Z,56.15
2023-02-06T03:55:32.603Z,55.88
2023-02-06T03:58:05.328Z,56.39
2023-02-06T04:00:34.892Z,57.39
2023-02-06T04:03:04.462Z,58.08
2023-02-06T04:05:32.611Z,58.73
2023-02-06T04:08:00.901Z,59.34
2023-02-06T04:10:29.019Z,60.09
2023-02-06T04:12:57.522Z,60.49
2023-02-06T04:15:25.473Z,60.97
2023-02-06T04:18:00.424Z,61.79
2023-02-06T04:20:30.082Z,63.55
2023-02-06T04:22:59.335Z,67.86
2023-02-06T04:25:27.494Z,69.51
2023-02-06T04:27:55.523Z,69.52
2023-02-06T04:30:23.769Z,69.57
2023-02-06T04:32:52.533Z,69.57
2023-02-06T04:35:21.198Z,67.19
2023-02-06T04:37:49.368Z,65.77
2023-02-06T04:40:17.872Z,63.22
2023-02-06T04:42:46.847Z,56.88
2023-02-06T04:45:15.127Z,51.39
2023-02-06T04:47:43.211Z,50.56
2023-02-06T04:50:11.366Z,51.22
2023-02-06T04:52:39.333Z,52.01
2023-02-06T04:55:07.980Z,53.46
2023-02-06T04:57:36.090Z,54.20
2023-02-06T05:00:06.581Z,55.05
2023-02-06T05:02:39.648Z,55.83
2023-02-06T05:05:09.727Z,56.68
2023-02-06T05:07:37.794Z,57.85
2023-02-06T05:10:06.380Z,58.66
2023-02-06T05:12:34.552Z,60.17
2023-02-06T05:15:02.614Z,61.13
2023-02-06T05:17:30.953Z,61.40
2023-02-06T05:19:59.375Z,62.14
2023-02-06T05:22:27.545Z,64.09
2023-02-06T05:24:55.517Z,66.99
2023-02-06T05:27:24.824Z,67.35
2023-02-06T05:29:54.875Z,66.08
2023-02-06T05:32:25.870Z,64.82
2023-02-06T05:34:54.286Z,63.28
2023-02-06T05:37:22.442Z,62.83
2023-02-06T05:39:50.500Z,62.19
2023-02-06T05:42:18.770Z,61.01
2023-02-06T05:44:46.981Z,60.43
2023-02-06T05:47:15.118Z,58.53
2023-02-06T05:49:44.419Z,56.36
2023-02-06T05:52:12.594Z,56.27
2023-02-06T05:54:40.882Z,56.47
2023-02-06T05:57:09.364Z,57.07
2023-02-06T05:59:37.534Z,57.84
2023-02-06T06:02:06.636Z,58.74
2023-02-06T06:04:34.761Z,59.74
2023-02-06T06:07:02.861Z,60.84
2023-02-06T06:09:30.831Z,61.83
2023-02-06T06:11:58.842Z,63.53
2023-02-06T06:14:27.642Z,66.28
2023-02-06T06:16:55.669Z,66.13
2023-02-06T06:19:23.602Z,65.34
2023-02-06T06:21:51.921Z,63.05
2023-02-06T06:24:19.961Z,62.64
2023-02-06T06:26:47.977Z,62.27
2023-02-06T06:29:16.125Z,61.12
2023-02-06T06:31:44.548Z,60.34
2023-02-06T06:34:12.578Z,60.23
2023-02-06T06:36:40.774Z,60.01
2023-02-06T06:39:08.707Z,59.09
2023-02-06T06:41:36.942Z,56.89
2023-02-06T06:44:05.178Z,56.91
2023-02-06T06:46:33.543Z,57.48
2023-02-06T06:49:01.764Z,58.35
2023-02-06T06:51:30.314Z,59.41
2023-02-06T06:53:58.465Z,60.08
2023-02-06T06:56:27.250Z,60.80
2023-02-06T06:58:55.846Z,61.83
2023-02-06T07:01:23.835Z,63.73
2023-02-06T07:03:52.594Z,67.68
2023-02-06T07:06:20.869Z,67.36
2023-02-06T07:08:48.834Z,63.31
2023-02-06T07:11:18.316Z,62.23
2023-02-06T07:13:46.333Z,61.60
2023-02-06T07:16:14.431Z,58.45
2023-02-06T07:18:43.282Z,56.01
2023-02-06T07:21:11.854Z,55.32
2023-02-06T07:23:40.333Z,55.57
2023-02-06T07:26:08.616Z,56.55
2023-02-06T07:28:37.396Z,57.11
2023-02-06T07:31:07.072Z,59.17
2023-02-06T07:33:35.704Z,59.32
2023-02-06T07:36:04.311Z,60.02
2023-02-06T07:38:32.573Z,60.71
2023-02-06T07:41:02.737Z,61.34
2023-02-06T07:43:31.656Z,63.23
2023-02-06T07:46:01.531Z,65.93
2023-02-06T07:48:30.155Z,67.49
2023-02-06T07:51:05.463Z,67.28
2023-02-06T07:53:34.388Z,67.43
2023-02-06T07:56:03.076Z,64.78
2023-02-06T07:58:31.043Z,57.17
2023-02-06T08:01:04.930Z,49.61
2023-02-06T08:03:34.250Z,50.47
2023-02-06T08:06:08.422Z,51.83
2023-02-06T08:08:36.637Z,52.52
2023-02-06T08:11:06.905Z,53.44
2023-02-06T08:13:35.491Z,55.75
2023-02-06T08:16:08.917Z,57.60
2023-02-06T08:18:38.032Z,58.65
2023-02-06T08:21:09.792Z,59.06
2023-02-06T08:23:38.787Z,59.33
2023-02-06T08:26:18.227Z,59.55
2023-02-06T08:28:49.619Z,61.05
2023-02-06T08:31:26.534Z,61.26
2023-02-06T08:33:55.452Z,63.27
2023-02-06T08:36:24.849Z,67.03
2023-02-06T08:38:53.374Z,67.73
2023-02-06T08:41:30.889Z,68.76
2023-02-06T08:44:00.794Z,62.79
2023-02-06T08:46:31.811Z,56.67
2023-02-06T08:49:04.011Z,50.65
2023-02-06T08:51:33.648Z,49.09
2023-02-06T08:54:04.612Z,49.82
2023-02-06T08:56:34.437Z,51.12
2023-02-06T08:59:04.134Z,52.01
2023-02-06T09:01:34.278Z,53.61
2023-02-06T09:04:09.400Z,54.44
2023-02-06T09:06:43.206Z,55.81
2023-02-06T09:09:12.790Z,57.54
2023-02-06T09:11:41.623Z,58.15
2023-02-06T09:14:14.928Z,57.92
2023-02-06T09:16:43.647Z,58.20
2023-02-06T09:19:12.224Z,60.02
2023-02-06T09:21:40.601Z,61.43
2023-02-06T09:24:09.671Z,61.84
2023-02-06T09:26:53.417Z,61.32
2023-02-06T09:29:25.931Z,61.44
2023-02-06T09:31:53.980Z,64.21
2023-02-06T09:34:21.996Z,67.87
2023-02-06T09:36:50.320Z,68.00
2023-02-06T09:39:18.598Z,67.38
2023-02-06T09:41:51.416Z,63.17
2023-02-06T09:44:22.117Z,56.89
2023-02-06T09:47:02.787Z,50.15
2023-02-06T09:50:02.941Z,49.80
2023-02-06T09:52:55.038Z,52.31
2023-02-06T09:55:38.091Z,52.24
2023-02-06T09:58:31.040Z,52.21
2023-02-06T10:01:08.430Z,53.19
2023-02-06T10:03:50.158Z,56.03
2023-02-06T10:06:24.306Z,56.49
2023-02-06T10:09:37.434Z,56.56
2023-02-06T10:12:14.828Z,57.25
2023-02-06T10:14:50.914Z,58.78
2023-02-06T10:17:28.113Z,58.84
2023-02-06T10:19:59.532Z,59.80
2023-02-06T10:22:47.080Z,60.50
2023-02-06T10:25:29.569Z,60.94
2023-02-06T10:28:02.468Z,63.45
2023-02-06T10:31:09.602Z,68.51
2023-02-06T10:34:21.560Z,69.46
2023-02-06T10:37:00.252Z,68.02
2023-02-06T10:40:05.491Z,64.08
2023-02-06T10:43:04.960Z,54.86
2023-02-06T10:45:51.972Z,49.12
2023-02-06T10:48:39.278Z,49.46
2023-02-06T10:51:19.017Z,50.39
2023-02-06T10:53:52.257Z,52.14
2023-02-06T10:56:28.955Z,54.07
2023-02-06T10:59:04.903Z,55.89
2023-02-06T11:01:38.569Z,55.80
2023-02-06T11:04:21.012Z,56.21
2023-02-06T11:06:49.698Z,58.19
2023-02-06T11:09:17.667Z,59.04
2023-02-06T11:11:51.477Z,60.53
2023-02-06T11:14:25.309Z,60.81
2023-02-06T11:16:54.069Z,61.07
2023-02-06T11:19:36.163Z,61.67
2023-02-06T11:22:07.510Z,64.58
2023-02-06T11:24:37.449Z,68.88
2023-02-06T11:27:22.978Z,69.87
2023-02-06T11:29:52.263Z,60.57
2023-02-06T11:32:38.015Z,50.94
2023-02-06T11:35:28.287Z,49.86
2023-02-06T11:38:13.558Z,51.54
2023-02-06T11:40:42.260Z,53.50
2023-02-06T11:43:16.378Z,54.31
2023-02-06T11:45:47.368Z,55.90
2023-02-06T11:48:38.420Z,57.12
2023-02-06T11:51:08.260Z,58.15
2023-02-06T11:53:38.251Z,58.85
2023-02-06T11:56:16.143Z,59.68
2023-02-06T11:58:45.659Z,60.07
2023-02-06T12:01:21.070Z,60.39
2023-02-06T12:03:56.510Z,61.19
2023-02-06T12:06:32.598Z,64.67
2023-02-06T12:09:04.075Z,70.21
2023-02-06T12:11:58.553Z,70.49
2023-02-06T12:14:51.590Z,65.89
2023-02-06T12:17:28.330Z,50.07
2023-02-06T12:20:03.527Z,46.71
2023-02-06T12:22:38.878Z,48.74
2023-02-06T12:25:24.745Z,51.03
2023-02-06T12:27:58.244Z,51.91
2023-02-06T12:30:40.742Z,53.53
2023-02-06T12:33:23.548Z,54.50
2023-02-06T12:36:03.522Z,55.34
2023-02-06T12:38:40.696Z,56.82
2023-02-06T12:41:23.808Z,58.15
2023-02-06T12:44:19.653Z,57.52
2023-02-06T12:46:57.370Z,58.77
2023-02-06T12:49:42.221Z,58.76
2023-02-06T12:52:17.540Z,59.48
2023-02-06T12:54:59.623Z,59.72
2023-02-06T12:57:31.654Z,58.36
2023-02-06T13:00:18.955Z,58.90
2023-02-06T13:03:24.768Z,58.52
2023-02-06T13:06:04.017Z,57.38
2023-02-06T13:08:47.331Z,59.08
2023-02-06T13:11:21.454Z,59.03
2023-02-06T13:13:50.253Z,58.60
2023-02-06T13:16:19.237Z,56.62
2023-02-06T13:18:52.691Z,56.53
2023-02-06T13:21:32.371Z,57.78
2023-02-06T13:24:03.535Z,58.03
2023-02-06T13:26:53.102Z,58.74
2023-02-06T13:29:26.861Z,58.71
2023-02-06T13:32:12.610Z,58.88
2023-02-06T13:34:43.406Z,59.52
2023-02-06T13:37:26.641Z,58.83
2023-02-06T13:40:22.414Z,59.60
2023-02-06T13:43:05.990Z,58.86
2023-02-06T13:45:37.008Z,60.03
2023-02-06T13:48:14.639Z,59.86
2023-02-06T13:50:54.583Z,58.43
2023-02-06T13:54:03.311Z,58.76
2023-02-06T13:56:46.988Z,57.86
2023-02-06T13:59:23.158Z,57.07
2023-02-06T14:01:56.571Z,58.83
2023-02-06T14:04:28.730Z,59.08
2023-02-06T14:07:35.339Z,59.98
2023-02-06T14:10:38.853Z,58.97
2023-02-06T14:13:24.359Z,59.68
2023-02-06T14:16:26.947Z,60.11
2023-02-06T14:19:04.641Z,59.66
2023-02-06T14:21:58.880Z,59.10
2023-02-06T14:24:54.533Z,60.08
2023-02-06T14:27:32.031Z,60.15
2023-02-06T14:30:38.272Z,60.18
2023-02-06T14:33:34.066Z,59.62
2023-02-06T14:36:12.820Z,60.28
2023-02-06T14:38:59.292Z,60.31
2023-02-06T14:41:30.326Z,60.12
2023-02-06T14:43:59.880Z,60.56
2023-02-06T14:46:29.416Z,60.13
2023-02-06T14:48:59.688Z,60.58
2023-02-06T14:51:38.241Z,60.99
2023-02-06T14:54:27.085Z,61.19
2023-02-06T14:57:00.489Z,61.31
2023-02-06T14:59:29.468Z,61.64
2023-02-06T15:02:12.282Z,61.80
2023-02-06T15:04:47.772Z,61.83
2023-02-06T15:07:35.422Z,61.95
2023-02-06T15:10:18.390Z,64.74
2023-02-06T15:12:53.826Z,73.80
2023-02-06T15:15:24.935Z,71.22
2023-02-06T15:18:14.682Z,67.58
2023-02-06T15:20:45.296Z,65.70
2023-02-06T15:23:57.243Z,59.13
2023-02-06T15:26:25.546Z,51.81
2023-02-06T15:28:58.817Z,50.80
2023-02-06T15:31:28.754Z,51.10
2023-02-06T15:34:01.511Z,51.69
2023-02-06T15:36:38.633Z,52.31
2023-02-06T15:39:09.682Z,53.02
2023-02-06T15:41:41.083Z,53.80
2023-02-06T15:44:17.803Z,54.50
2023-02-06T15:46:48.422Z,55.05
2023-02-06T15:49:37.548Z,53.85
2023-02-06T15:52:06.029Z,55.66
2023-02-06T15:54:34.534Z,56.88
2023-02-06T15:57:04.838Z,57.50
2023-02-06T15:59:37.021Z,58.00
2023-02-06T16:02:05.980Z,58.54
2023-02-06T16:04:39.848Z,58.99
2023-02-06T16:07:19.767Z,59.51
2023-02-06T16:10:12.447Z,60.05
2023-02-06T16:12:43.522Z,60.31
2023-02-06T16:15:27.249Z,60.83
2023-02-06T16:17:56.767Z,61.20
2023-02-06T16:20:37.274Z,61.67
2023-02-06T16:23:27.159Z,65.89
2023-02-06T16:26:17.423Z,72.48
2023-02-06T16:29:03.022Z,71.66
2023-02-06T16:31:35.057Z,68.90
2023-02-06T16:34:29.661Z,66.59
2023-02-06T16:36:57.828Z,64.23
2023-02-06T16:39:25.823Z,57.60
2023-02-06T16:41:54.272Z,51.32
2023-02-06T16:44:22.347Z,50.05
2023-02-06T16:46:50.345Z,50.26
2023-02-06T16:49:21.777Z,50.95
2023-02-06T16:51:53.664Z,51.67
2023-02-06T16:54:32.077Z,52.50
2023-02-06T16:57:11.425Z,53.29
2023-02-06T16:59:39.482Z,54.16
2023-02-06T17:02:14.668Z,55.00
2023-02-06T17:04:42.792Z,55.74
2023-02-06T17:07:23.137Z,56.43
2023-02-06T17:09:54.077Z,57.02
2023-02-06T17:12:22.984Z,57.82
2023-02-06T17:14:51.111Z,58.46
2023-02-06T17:17:20.958Z,59.09
2023-02-06T17:19:50.805Z,59.59
2023-02-06T17:22:19.117Z,60.09
2023-02-06T17:24:47.491Z,60.76
2023-02-06T17:27:20.070Z,61.30
2023-02-06T17:29:49.606Z,61.81
2023-02-06T17:32:22.307Z,65.57
2023-02-06T17:34:54.349Z,72.97
2023-02-06T17:37:22.595Z,71.27
2023-02-06T17:39:52.310Z,67.39
2023-02-06T17:42:22.191Z,65.09
2023-02-06T17:44:50.722Z,62.69
2023-02-06T17:47:18.977Z,58.19
2023-02-06T17:49:47.251Z,52.26
2023-02-06T17:52:15.732Z,51.26
2023-02-06T17:54:44.801Z,51.67
2023-02-06T17:57:13.720Z,52.40
2023-02-06T17:59:42.106Z,53.10
2023-02-06T18:02:14.855Z,53.81
2023-02-06T18:04:43.156Z,54.56
2023-02-06T18:07:11.226Z,55.40
2023-02-06T18:09:41.768Z,56.31
2023-02-06T18:12:10.131Z,57.11
2023-02-06T18:14:39.859Z,57.76
2023-02-06T18:17:08.750Z,58.39
2023-02-06T18:19:42.302Z,59.34
2023-02-06T18:22:13.421Z,60.01
2023-02-06T18:24:41.759Z,60.70
2023-02-06T18:27:10.776Z,61.58
2023-02-06T18:29:49.420Z,64.91
2023-02-06T18:32:19.117Z,72.20
2023-02-06T18:34:47.698Z,70.31
2023-02-06T18:37:16.259Z,66.59
2023-02-06T18:39:44.530Z,64.84
2023-02-06T18:42:31.772Z,61.70
2023-02-06T18:44:59.904Z,57.65
2023-02-06T18:47:28.073Z,53.16
2023-02-06T18:49:56.025Z,52.53
2023-02-06T18:52:24.327Z,52.98
2023-02-06T18:54:52.389Z,53.52
2023-02-06T18:57:20.463Z,54.57
2023-02-06T18:59:49.042Z,55.29
2023-02-06T19:02:17.420Z,56.27
2023-02-06T19:04:45.738Z,57.12
2023-02-06T19:07:13.981Z,57.71
2023-02-06T19:09:42.357Z,58.39
2023-02-06T19:12:10.544Z,59.13
2023-02-06T19:14:40.206Z,59.92
2023-02-06T19:17:08.424Z,60.51
2023-02-06T19:19:36.589Z,60.99
2023-02-06T19:22:04.658Z,61.69
2023-02-06T19:24:32.757Z,64.80
2023-02-06T19:27:02.201Z,70.33
2023-02-06T19:29:36.145Z,70.19
2023-02-06T19:32:06.721Z,69.42
2023-02-06T19:34:37.201Z,67.56
2023-02-06T19:37:07.734Z,65.51
2023-02-06T19:39:37.247Z,62.99
2023-02-06T19:42:07.113Z,57.96
2023-02-06T19:44:35.855Z,52.84
2023-02-06T19:47:04.352Z,51.66
2023-02-06T19:49:32.765Z,52.25
2023-02-06T19:52:01.618Z,52.88
2023-02-06T19:54:29.569Z,54.09
2023-02-06T19:56:57.576Z,55.37
2023-02-06T19:59:27.830Z,56.16
2023-02-06T20:02:02.974Z,56.82
2023-02-06T20:04:34.692Z,57.58
2023-02-06T20:07:03.139Z,58.35
2023-02-06T20:09:31.819Z,59.20
2023-02-06T20:12:00.485Z,59.99
2023-02-06T20:14:29.114Z,60.69
2023-02-06T20:16:57.219Z,61.14
2023-02-06T20:19:27.948Z,63.37
2023-02-06T20:21:59.037Z,70.41
2023-02-06T20:24:30.202Z,68.61
2023-02-06T20:27:01.492Z,65.84
2023-02-06T20:29:33.040Z,64.37
2023-02-06T20:32:01.565Z,62.85
2023-02-06T20:34:29.865Z,62.09
2023-02-06T20:36:58.703Z,56.69
2023-02-06T20:39:27.820Z,51.26
2023-02-06T20:41:56.458Z,50.61
2023-02-06T20:44:24.716Z,51.24
2023-02-06T20:46:53.017Z,51.95
2023-02-06T20:49:24.400Z,52.85
2023-02-06T20:51:52.900Z,53.79
2023-02-06T20:54:21.959Z,54.68
2023-02-06T20:56:50.140Z,55.50
2023-02-06T20:59:20.046Z,56.24
2023-02-06T21:01:48.625Z,57.02
2023-02-06T21:04:18.181Z,57.72
2023-02-06T21:06:48.767Z,58.54
2023-02-06T21:09:18.061Z,59.13
2023-02-06T21:11:48.442Z,59.65
2023-02-06T21:14:17.695Z,60.40
2023-02-06T21:16:46.799Z,61.10
2023-02-06T21:19:17.332Z,61.47
2023-02-06T21:21:46.297Z,63.97
2023-02-06T21:24:16.935Z,71.46
2023-02-06T21:26:45.224Z,70.88
2023-02-06T21:29:15.015Z,67.11
2023-02-06T21:31:43.454Z,64.82
2023-02-06T21:34:14.967Z,63.18
2023-02-06T21:36:44.263Z,57.92
2023-02-06T21:39:22.269Z,51.85
2023-02-06T21:41:56.778Z,50.90
2023-02-06T21:44:25.411Z,51.42
2023-02-06T21:46:54.153Z,51.92
2023-02-06T21:49:23.460Z,52.90
2023-02-06T21:51:53.367Z,53.84
2023-02-06T21:54:22.619Z,54.43
2023-02-06T21:56:51.725Z,55.17
2023-02-06T21:59:19.736Z,55.86
2023-02-06T22:01:47.750Z,56.77
2023-02-06T22:04:15.871Z,57.69
2023-02-06T22:06:44.158Z,58.22
2023-02-06T22:09:16.540Z,58.86
2023-02-06T22:11:44.694Z,59.69
2023-02-06T22:14:17.818Z,60.47
2023-02-06T22:16:46.996Z,60.98
2023-02-06T22:19:16.929Z,61.29
2023-02-06T22:21:46.021Z,61.82
2023-02-06T22:24:14.060Z,64.64
2023-02-06T22:26:43.362Z,72.41
2023-02-06T22:29:14.860Z,72.21
2023-02-06T22:31:44.878Z,70.69
2023-02-06T22:34:18.484Z,68.04
2023-02-06T22:36:47.316Z,65.48
2023-02-06T22:39:15.693Z,63.14
2023-02-06T22:41:45.683Z,57.93
2023-02-06T22:44:16.822Z,50.78
2023-02-06T22:46:48.505Z,48.24
2023-02-06T22:49:17.456Z,48.25
2023-02-06T22:51:46.087Z,49.04
2023-02-06T22:54:15.087Z,49.93
2023-02-06T22:56:44.102Z,50.75
2023-02-06T22:59:21.739Z,51.56
2023-02-06T23:02:30.795Z,52.46
2023-02-06T23:04:59.272Z,52.85
2023-02-06T23:07:27.655Z,54.67
2023-02-06T23:09:55.843Z,55.97
2023-02-06T23:12:23.796Z,56.42
2023-02-06T23:14:51.867Z,57.12
2023-02-06T23:17:19.943Z,58.53
2023-02-06T23:19:48.114Z,59.41
2023-02-06T23:22:16.184Z,60.12
2023-02-06T23:24:44.458Z,60.60
2023-02-06T23:27:12.633Z,61.34
2023-02-06T23:29:40.705Z,61.96
2023-02-06T23:32:08.779Z,66.28
2023-02-06T23:34:38.534Z,73.84
2023-02-06T23:37:07.070Z,72.91
2023-02-06T23:39:35.348Z,69.01
2023-02-06T23:42:03.437Z,64.42
2023-02-06T23:44:31.685Z,63.08
2023-02-06T23:46:59.858Z,57.49
2023-02-06T23:49:27.838Z,50.57
2023-02-06T23:51:56.109Z,49.19
2023-02-06T23:54:24.185Z,49.89
2023-02-06T23:56:52.246Z,50.81
2023-02-06T23:59:20.321Z,52.59
